Impacts METAR Board
IDs:

KMDW - Chicago/Midway Intl, IL, US

Updated at: 1500 UTC 20 Aug 2019
Potential Impact None Slight Moderate High
Time 20/03Z 20/04Z 20/05Z 20/06Z 20/07Z 20/08Z 20/09Z 20/10Z 20/11Z 20/12Z 20/13Z 20/14Z 20/15Z
Temp78 78 78 77 77 76 75 74 72 74 76 77 77
Dewpt73 73 73 73 73 73 72 71 70 72 73 74 74
Altim30.01 30.00 30.00 30.00 30.01 30.01 30.02 30.00 29.98 30.00 30.00 30.01 29.98
VIS10 10 10 10 10 10 10 10 10 9 9 8 9
CIG45 -- -- -- -- -- -- -- -- 250 250 250 250
CoverBKNFEWFEWFEWFEWSCTFEWFEWFEWOVCOVCOVCOVC
FltCatVFRVFRVFRVFRVFRVFRVFRVFRVFRVFRVFRVFRVFR
WX--------------------------
WDir90110401301901802003003000220250200
WSpd7 3 3 3 6 4 4 4 3 0 4 5 4
WGst-- -- -- -- -- -- -- -- -- -- -- -- --
Raw hourly METARs
KMDW 200253Z 09007KT 10SM BKN045 BKN080 BKN200 26/23 A3001 RMK AO2 SLP149 FRQ LTGIC DSNT S-SW CB DSNT S-SW T02560228 53009
KMDW 200353Z 11003KT 10SM FEW100 FEW200 26/23 A3000 RMK AO2 SLP148 T02560228
KMDW 200453Z 04003KT 10SM FEW045 26/23 A3000 RMK AO2 SLP149 T02560228
KMDW 200553Z 13003KT 10SM FEW045 25/23 A3000 RMK AO2 SLP148 T02500228 10272 20250 402940217 56001
KMDW 200653Z 19006KT 10SM FEW048 25/23 A3001 RMK AO2 SLP149 T02500228
KMDW 200753Z 18004KT 10SM SCT048 24/23 A3001 RMK AO2 SLP151 T02440228
KMDW 200853Z 20004KT 10SM FEW048 24/22 A3002 RMK AO2 SLP154 T02390222 53004
KMDW 200953Z 30004KT 10SM FEW048 23/22 A3000 RMK AO2 SLP147 T02330217
KMDW 201053Z COR 30003KT 10SM FEW048 FEW060 FEW250 22/21 A2998 RMK AO2 SLP142 CB DSNT NE T02220211
KMDW 201153Z 00000KT 9SM FEW050 OVC250 23/22 A3000 RMK AO2 SLP147 T02330222 10250 20222 55006
KMDW 201253Z 22004KT 9SM FEW050 OVC250 24/23 A3000 RMK AO2 SLP147 T02440228
KMDW 201353Z 25005KT 8SM FEW050 FEW200 OVC250 25/23 A3001 RMK AO2 SLP151 T02500233
KMDW 201453Z 20004KT 9SM FEW055 FEW200 OVC250 25/23 A2998 RMK AO2 SLP142 T02500233 58005



Page loaded:  15:48 UTC  |   08:48 AM Pacific  |   09:48 AM Mountain  |   10:48 AM Central  |   11:48 AM Eastern

 

ADVISORIES

FORECASTS

FORECASTS

OBSERVATIONS

USER TOOLS

ABOUT US